Time;durP1;ratioP1;P1;durP2;ratioP2;P2;SDS_P1;SDS_P2;PMS_P1;PMS_P2;Temp;Humidity;BMP_temperature;BMP_pressure;BME280_temperature;BME280_humidity;BME280_pressure;Samples;Min_cycle;Max_cycle;Signal;HPM_P1;HPM_P2
2021/12/22 00:02:10;;;;;;;29.10;13.45;;;;;;;;;;5092068;28;20085;-74
2021/12/22 00:04:43;;;;;;;28.10;13.73;;;;;;;;;;5092100;28;20044;-74
2021/12/22 00:07:10;;;;;;;24.67;12.57;;;;;;;;;;5107023;28;20032;-74
2021/12/22 00:09:36;;;;;;;27.67;12.80;;;;;;;;;;5074948;28;20032;-74
2021/12/22 00:12:02;;;;;;;30.30;13.98;;;;;;;;;;5092116;28;20050;-74
2021/12/22 00:14:28;;;;;;;26.63;14.15;;;;;;;;;;5090976;28;20422;-73
2021/12/22 00:16:54;;;;;;;39.60;15.95;;;;;;;;;;5093063;28;20485;-73
2021/12/22 00:19:20;;;;;;;28.52;13.35;;;;;;;;;;5095398;28;20467;-73
2021/12/22 00:21:46;;;;;;;29.17;13.35;;;;;;;;;;5095555;28;20096;-73
2021/12/22 00:24:12;;;;;;;28.33;12.43;;;;;;;;;;5112217;28;20071;-73
2021/12/22 00:26:38;;;;;;;28.90;13.48;;;;;;;;;;5095104;28;20085;-74
2021/12/22 00:29:05;;;;;;;30.55;12.18;;;;;;;;;;5112175;28;20082;-74
2021/12/22 00:31:39;;;;;;;32.63;13.60;;;;;;;;;;5112155;28;20093;-74
2021/12/22 00:34:06;;;;;;;32.25;13.95;;;;;;;;;;5095113;28;20040;-74
2021/12/22 00:36:32;;;;;;;34.83;14.20;;;;;;;;;;5112290;28;20520;-74
2021/12/22 00:38:58;;;;;;;28.77;13.13;;;;;;;;;;5112016;28;20430;-74
2021/12/22 00:41:24;;;;;;;29.75;12.30;;;;;;;;;;5089006;28;20568;-74
2021/12/22 00:43:50;;;;;;;24.45;12.73;;;;;;;;;;5071118;28;20048;-74
2021/12/22 00:46:16;;;;;;;27.38;12.10;;;;;;;;;;5071057;28;20052;-73
2021/12/22 00:48:42;;;;;;;30.08;12.60;;;;;;;;;;5085991;28;20255;-73
2021/12/22 00:51:08;;;;;;;29.77;13.55;;;;;;;;;;5091145;28;20047;-73
2021/12/22 00:53:34;;;;;;;32.63;13.63;;;;;;;;;;5082351;28;20036;-74
2021/12/22 00:56:02;;;;;;;32.00;13.63;;;;;;;;;;5078735;28;20043;-73
2021/12/22 00:58:28;;;;;;;34.05;15.20;;;;;;;;;;5070790;28;20126;-73
2021/12/22 01:00:54;;;;;;;36.25;14.15;;;;;;;;;;5070989;28;20079;-74
2021/12/22 01:03:21;;;;;;;40.85;15.65;;;;;;;;;;5070792;28;20106;-73
2021/12/22 01:05:47;;;;;;;37.05;15.48;;;;;;;;;;5070701;28;20032;-74
2021/12/22 01:08:13;;;;;;;31.92;14.57;;;;;;;;;;5070712;28;20054;-74
2021/12/22 01:10:39;;;;;;;29.10;12.73;;;;;;;;;;5070714;28;20467;-74
2021/12/22 01:13:07;;;;;;;27.30;13.10;;;;;;;;;;5070725;28;20067;-74
2021/12/22 01:15:33;;;;;;;31.90;13.38;;;;;;;;;;5070550;28;20083;-73
2021/12/22 01:18:10;;;;;;;29.20;13.50;;;;;;;;;;5070893;28;20080;-73
2021/12/22 01:20:51;;;;;;;29.58;13.95;;;;;;;;;;5090362;28;20044;-73
2021/12/22 01:23:19;;;;;;;31.02;13.68;;;;;;;;;;5075130;28;20389;-73
2021/12/22 01:25:47;;;;;;;34.47;14.65;;;;;;;;;;5070260;28;20123;-73
2021/12/22 01:28:14;;;;;;;34.08;13.35;;;;;;;;;;5070416;28;20516;-74
2021/12/22 01:30:44;;;;;;;28.40;13.00;;;;;;;;;;5070440;28;20119;-74
2021/12/22 01:33:10;;;;;;;29.10;12.20;;;;;;;;;;5070659;28;20089;-74
2021/12/22 01:35:37;;;;;;;30.15;13.90;;;;;;;;;;5072301;28;20049;-73
2021/12/22 01:38:03;;;;;;;32.95;14.40;;;;;;;;;;5090582;28;20050;-74
2021/12/22 01:40:29;;;;;;;32.47;14.27;;;;;;;;;;5090434;28;20044;-73
2021/12/22 01:42:56;;;;;;;30.63;13.27;;;;;;;;;;5090047;28;20048;-74
2021/12/22 01:51:05;;;;;;;25.25;13.77;;;;;;;;;;5110373;28;20048;-74
2021/12/22 01:53:42;;;;;;;26.65;12.88;;;;;;;;;;5110557;28;20032;-74
2021/12/22 01:56:24;;;;;;;30.88;13.68;;;;;;;;;;5110385;28;20040;-74
2021/12/22 01:58:51;;;;;;;31.58;13.35;;;;;;;;;;5110538;28;20505;-74
2021/12/22 02:01:17;;;;;;;34.47;14.45;;;;;;;;;;5110476;28;20070;-73
2021/12/22 02:03:44;;;;;;;37.67;15.30;;;;;;;;;;5110358;28;20051;-74
2021/12/22 02:06:11;;;;;;;32.28;13.98;;;;;;;;;;5110607;28;20048;-73
2021/12/22 02:08:37;;;;;;;29.23;14.20;;;;;;;;;;5093896;28;20044;-74
2021/12/22 02:11:04;;;;;;;27.60;13.00;;;;;;;;;;5110623;28;20039;-73
2021/12/22 02:13:36;;;;;;;28.27;12.43;;;;;;;;;;5093541;28;20031;-73
2021/12/22 02:16:07;;;;;;;30.23;13.75;;;;;;;;;;5110787;28;20074;-73
2021/12/22 02:18:34;;;;;;;36.30;13.80;;;;;;;;;;5091916;28;20040;-73
2021/12/22 02:21:00;;;;;;;24.00;12.18;;;;;;;;;;5058210;28;20040;-73
2021/12/22 02:23:26;;;;;;;29.65;13.43;;;;;;;;;;5069846;28;20105;-73
2021/12/22 02:25:57;;;;;;;23.65;13.07;;;;;;;;;;5069778;28;20040;-73
2021/12/22 02:28:28;;;;;;;33.30;12.80;;;;;;;;;;5069790;28;20056;-73
2021/12/22 02:30:54;;;;;;;;;;;;;;;;;;5070303;28;20036;-73
2021/12/22 02:33:54;;;;;;;27.75;12.23;;;;;;;;;;5069836;28;19920;-73
2021/12/22 02:38:56;;;;;;;25.38;12.10;;;;;;;;;;5089786;28;20121;-73
2021/12/22 02:41:25;;;;;;;25.42;11.73;;;;;;;;;;5073585;28;20044;-73
2021/12/22 02:43:54;;;;;;;25.75;11.98;;;;;;;;;;5073584;28;20048;-73
2021/12/22 02:46:21;;;;;;;21.80;11.32;;;;;;;;;;5073337;28;20037;-73
2021/12/22 02:48:48;;;;;;;25.30;12.50;;;;;;;;;;5077424;28;20047;-73
2021/12/22 02:51:14;;;;;;;27.40;11.15;;;;;;;;;;5093495;28;20044;-73
2021/12/22 02:53:45;;;;;;;23.58;11.43;;;;;;;;;;5093469;28;20071;-72
2021/12/22 02:56:25;;;;;;;24.85;10.98;;;;;;;;;;5093513;28;20043;-73
2021/12/22 03:01:40;;;;;;;24.23;11.30;;;;;;;;;;5093281;28;20089;-73
2021/12/22 03:04:11;;;;;;;23.40;11.00;;;;;;;;;;5093328;28;20122;-73
2021/12/22 03:06:45;;;;;;;25.88;11.95;;;;;;;;;;5093254;28;20048;-73
2021/12/22 03:09:22;;;;;;;22.95;10.80;;;;;;;;;;5093566;28;20051;-73
2021/12/22 03:11:48;;;;;;;28.27;11.30;;;;;;;;;;5093377;28;20039;-73
2021/12/22 03:14:15;;;;;;;27.45;11.15;;;;;;;;;;5093536;28;20040;-72
2021/12/22 03:16:42;;;;;;;22.48;9.65;;;;;;;;;;5093066;28;20126;-73
2021/12/22 03:19:10;;;;;;;22.10;11.27;;;;;;;;;;5099533;28;20044;-73
2021/12/22 03:21:36;;;;;;;23.23;11.45;;;;;;;;;;5113678;28;20122;-73
2021/12/22 03:24:02;;;;;;;23.92;10.70;;;;;;;;;;5096750;28;20403;-73
2021/12/22 03:26:29;;;;;;;18.20;9.77;;;;;;;;;;5113153;28;20039;-73
2021/12/22 03:28:55;;;;;;;21.17;9.73;;;;;;;;;;5096170;28;20046;-73
2021/12/22 03:31:21;;;;;;;21.90;10.07;;;;;;;;;;5113342;28;20047;-73
2021/12/22 03:33:47;;;;;;;24.30;10.13;;;;;;;;;;5113162;28;20476;-73
2021/12/22 03:36:14;;;;;;;22.55;10.70;;;;;;;;;;5113312;28;20097;-73
2021/12/22 03:38:40;;;;;;;23.42;10.60;;;;;;;;;;5113030;28;20071;-73
2021/12/22 03:41:07;;;;;;;24.58;11.18;;;;;;;;;;5113134;28;20043;-73
2021/12/22 03:43:33;;;;;;;24.70;10.77;;;;;;;;;;5113060;28;20048;-73
2021/12/22 03:45:59;;;;;;;29.17;12.63;;;;;;;;;;5112929;28;20043;-73
2021/12/22 03:48:26;;;;;;;26.92;11.52;;;;;;;;;;5110925;28;20032;-73
2021/12/22 03:50:52;;;;;;;25.50;10.88;;;;;;;;;;5112509;28;20406;-73
2021/12/22 03:53:18;;;;;;;24.33;10.38;;;;;;;;;;5095609;28;20047;-72
2021/12/22 03:55:44;;;;;;;29.00;10.95;;;;;;;;;;5112267;28;20031;-73
2021/12/22 03:58:10;;;;;;;28.33;12.70;;;;;;;;;;5095837;28;20130;-73
2021/12/22 04:00:37;;;;;;;27.38;12.77;;;;;;;;;;5112811;28;20039;-72
2021/12/22 04:03:04;;;;;;;26.33;11.50;;;;;;;;;;5095068;28;20071;-72
2021/12/22 04:05:30;;;;;;;23.35;12.25;;;;;;;;;;5112017;28;20073;-72
2021/12/22 04:07:56;;;;;;;25.30;11.38;;;;;;;;;;5095291;28;20059;-72
2021/12/22 04:10:23;;;;;;;29.23;12.70;;;;;;;;;;5112082;28;20063;-72
2021/12/22 04:12:51;;;;;;;23.50;10.85;;;;;;;;;;5095046;28;20407;-72
2021/12/22 04:15:18;;;;;;;27.63;11.98;;;;;;;;;;5112424;28;20047;-72
2021/12/22 04:17:44;;;;;;;22.67;11.30;;;;;;;;;;5095040;28;20509;-72
2021/12/22 04:20:10;;;;;;;27.45;11.10;;;;;;;;;;5095203;28;20130;-72
2021/12/22 04:22:37;;;;;;;27.08;11.15;;;;;;;;;;5095160;28;20509;-72
2021/12/22 04:25:04;;;;;;;23.80;10.70;;;;;;;;;;5094754;28;20040;-72
2021/12/22 04:27:30;;;;;;;25.02;10.75;;;;;;;;;;5111697;28;20479;-72
2021/12/22 04:29:56;;;;;;;27.42;12.48;;;;;;;;;;5094756;28;20096;-71
2021/12/22 04:32:23;;;;;;;31.38;13.07;;;;;;;;;;5094814;28;20036;-72
2021/12/22 04:34:49;;;;;;;31.63;12.40;;;;;;;;;;5111723;28;20471;-71
2021/12/22 04:37:15;;;;;;;29.30;12.73;;;;;;;;;;5111718;28;20047;-72
2021/12/22 04:39:40;;;;;;;25.85;12.60;;;;;;;;;;5111487;28;20048;-71
2021/12/22 04:42:07;;;;;;;25.02;11.93;;;;;;;;;;5094799;28;20044;-71
2021/12/22 04:44:33;;;;;;;28.80;11.52;;;;;;;;;;5111362;28;20050;-71
2021/12/22 04:46:59;;;;;;;31.58;11.77;;;;;;;;;;5111421;28;20487;-72
2021/12/22 04:49:25;;;;;;;27.77;12.30;;;;;;;;;;5111503;28;20039;-71
2021/12/22 04:51:54;;;;;;;26.30;12.80;;;;;;;;;;5111253;28;20036;-71
2021/12/22 04:54:33;;;;;;;30.55;13.27;;;;;;;;;;5111480;28;20114;-71
2021/12/22 04:56:59;;;;;;;35.53;13.32;;;;;;;;;;5111530;28;20043;-72
2021/12/22 04:59:26;;;;;;;28.67;13.05;;;;;;;;;;5111447;28;20035;-71
2021/12/22 05:01:52;;;;;;;25.77;12.13;;;;;;;;;;5110467;28;20410;-71
2021/12/22 05:04:18;;;;;;;31.55;12.63;;;;;;;;;;5094079;28;20127;-71
2021/12/22 05:06:44;;;;;;;29.70;11.10;;;;;;;;;;5110974;28;20122;-71
2021/12/22 05:09:10;;;;;;;28.95;13.23;;;;;;;;;;5110886;28;20036;-71
2021/12/22 05:11:37;;;;;;;26.25;11.63;;;;;;;;;;5111333;28;20042;-71
2021/12/22 05:14:03;;;;;;;28.48;12.45;;;;;;;;;;5110938;28;20035;-71
2021/12/22 05:16:30;;;;;;;34.35;12.55;;;;;;;;;;5093888;28;20043;-71
2021/12/22 05:18:59;;;;;;;29.67;12.20;;;;;;;;;;5093873;28;20043;-71
2021/12/22 05:21:26;;;;;;;29.23;11.32;;;;;;;;;;5110819;28;20086;-71
2021/12/22 05:23:53;;;;;;;25.52;11.20;;;;;;;;;;5110963;28;20458;-71
2021/12/22 05:26:19;;;;;;;27.88;11.65;;;;;;;;;;5110604;28;20105;-71
2021/12/22 05:28:45;;;;;;;29.63;12.20;;;;;;;;;;5093661;28;20122;-71
2021/12/22 05:31:11;;;;;;;31.63;11.63;;;;;;;;;;5110480;28;20035;-71
2021/12/22 05:33:37;;;;;;;30.65;12.73;;;;;;;;;;5110810;28;20403;-71
2021/12/22 05:36:03;;;;;;;25.27;11.88;;;;;;;;;;5093751;28;20043;-70
2021/12/22 05:38:29;;;;;;;33.30;13.57;;;;;;;;;;5093494;28;20130;-71
2021/12/22 05:40:55;;;;;;;34.88;14.38;;;;;;;;;;5110361;28;20081;-71
2021/12/22 05:43:21;;;;;;;32.85;12.80;;;;;;;;;;5110552;28;20068;-70
2021/12/22 05:45:47;;;;;;;25.58;12.82;;;;;;;;;;5110516;28;20052;-71
2021/12/22 05:48:13;;;;;;;25.70;12.60;;;;;;;;;;5093452;28;20185;-71
2021/12/22 05:50:43;;;;;;;30.52;13.32;;;;;;;;;;5110631;28;20035;-71
2021/12/22 05:53:09;;;;;;;30.23;12.65;;;;;;;;;;5110829;28;20045;-71
2021/12/22 05:55:35;;;;;;;31.38;13.02;;;;;;;;;;5110561;28;20039;-70
2021/12/22 05:58:01;;;;;;;36.45;15.00;;;;;;;;;;5093741;28;20044;-70
2021/12/22 06:00:27;;;;;;;28.27;13.65;;;;;;;;;;5110864;28;20043;-70
2021/12/22 06:02:53;;;;;;;35.03;13.85;;;;;;;;;;5110480;28;20147;-70
2021/12/22 06:05:19;;;;;;;28.55;12.65;;;;;;;;;;5093461;28;20048;-71
2021/12/22 06:07:45;;;;;;;37.33;15.07;;;;;;;;;;5110634;28;20394;-70
2021/12/22 06:10:11;;;;;;;34.95;13.57;;;;;;;;;;5093488;28;20066;-71
2021/12/22 06:12:37;;;;;;;33.95;14.05;;;;;;;;;;5094640;28;20394;-70
2021/12/22 06:15:04;;;;;;;32.92;13.55;;;;;;;;;;5097740;28;20088;-71
2021/12/22 06:17:30;;;;;;;33.65;14.02;;;;;;;;;;5083019;28;20052;-71
2021/12/22 06:19:56;;;;;;;26.17;13.02;;;;;;;;;;5094052;28;20036;-70
2021/12/22 06:22:22;;;;;;;28.00;11.75;;;;;;;;;;5094353;28;20165;-70
2021/12/22 06:24:48;;;;;;;33.88;14.05;;;;;;;;;;5094339;28;20047;-71
2021/12/22 06:27:14;;;;;;;33.72;13.77;;;;;;;;;;5094259;28;20040;-71
2021/12/22 06:29:40;;;;;;;33.67;13.80;;;;;;;;;;5094014;28;20036;-70
2021/12/22 06:32:07;;;;;;;35.50;13.52;;;;;;;;;;5094240;28;20036;-70
2021/12/22 06:34:33;;;;;;;32.55;13.35;;;;;;;;;;5093787;28;20062;-70
2021/12/22 06:36:59;;;;;;;35.15;11.77;;;;;;;;;;5093852;28;20040;-70
2021/12/22 06:39:25;;;;;;;26.65;11.55;;;;;;;;;;5093878;28;20043;-70
2021/12/22 06:41:51;;;;;;;28.05;13.40;;;;;;;;;;5093972;28;20247;-70
2021/12/22 06:44:17;;;;;;;31.90;12.10;;;;;;;;;;5093846;28;20048;-70
2021/12/22 06:46:43;;;;;;;27.00;12.13;;;;;;;;;;5097950;28;20036;-70
2021/12/22 06:49:12;;;;;;;30.83;12.80;;;;;;;;;;5095124;28;20111;-71
2021/12/22 06:51:38;;;;;;;34.38;13.00;;;;;;;;;;5096825;28;20101;-70
2021/12/22 06:54:04;;;;;;;31.27;13.75;;;;;;;;;;5114218;28;20144;-70
2021/12/22 06:56:30;;;;;;;31.88;14.00;;;;;;;;;;5097281;28;20465;-71
2021/12/22 06:58:57;;;;;;;27.38;12.57;;;;;;;;;;5097554;28;20153;-70
2021/12/22 07:01:24;;;;;;;31.77;12.85;;;;;;;;;;5114138;28;20581;-70
2021/12/22 07:03:50;;;;;;;28.38;12.68;;;;;;;;;;5096736;28;20047;-71
2021/12/22 07:06:16;;;;;;;29.05;12.63;;;;;;;;;;5113794;28;20151;-71
2021/12/22 07:08:42;;;;;;;28.88;12.30;;;;;;;;;;5096823;28;20058;-70
2021/12/22 07:11:09;;;;;;;33.15;14.02;;;;;;;;;;5113818;28;20028;-70
2021/12/22 07:13:35;;;;;;;26.90;13.07;;;;;;;;;;5114226;28;20039;-70
2021/12/22 07:16:01;;;;;;;35.72;13.98;;;;;;;;;;5114152;28;20047;-70
2021/12/22 07:18:27;;;;;;;32.42;13.50;;;;;;;;;;5112630;28;20185;-70
2021/12/22 07:20:53;;;;;;;32.67;12.57;;;;;;;;;;5113652;28;20414;-70
2021/12/22 07:23:19;;;;;;;35.97;12.93;;;;;;;;;;5112765;28;20050;-70
2021/12/22 07:25:45;;;;;;;31.90;12.18;;;;;;;;;;5096120;28;20043;-70
2021/12/22 07:28:11;;;;;;;28.15;12.95;;;;;;;;;;5096010;28;20502;-70
2021/12/22 07:30:37;;;;;;;27.63;12.02;;;;;;;;;;5112954;28;20484;-70
2021/12/22 07:33:04;;;;;;;33.58;13.68;;;;;;;;;;5113304;28;20043;-70
2021/12/22 07:35:34;;;;;;;28.55;12.05;;;;;;;;;;5113236;28;20471;-70
2021/12/22 07:38:25;;;;;;;36.30;13.30;;;;;;;;;;5096264;28;20043;-70
2021/12/22 07:40:55;;;;;;;26.33;13.15;;;;;;;;;;5113177;28;20044;-70
2021/12/22 07:43:21;;;;;;;26.38;12.30;;;;;;;;;;5112963;28;20482;-70
2021/12/22 07:45:47;;;;;;;26.92;12.43;;;;;;;;;;5095723;28;20575;-70
2021/12/22 07:48:13;;;;;;;26.98;12.70;;;;;;;;;;5094662;28;20068;-71
2021/12/22 07:50:39;;;;;;;31.42;12.93;;;;;;;;;;5092835;28;20036;-70
2021/12/22 07:53:05;;;;;;;30.85;12.02;;;;;;;;;;5095447;28;20142;-70
2021/12/22 07:55:31;;;;;;;26.92;11.88;;;;;;;;;;5094925;28;20130;-70
2021/12/22 07:57:57;;;;;;;24.70;10.68;;;;;;;;;;5112736;28;20051;-70
2021/12/22 08:00:23;;;;;;;33.47;13.10;;;;;;;;;;5112929;28;20122;-70
2021/12/22 08:02:49;;;;;;;28.65;11.35;;;;;;;;;;5112795;28;20143;-70
2021/12/22 08:05:15;;;;;;;32.75;12.90;;;;;;;;;;5095574;28;20040;-70
2021/12/22 08:07:41;;;;;;;26.25;12.02;;;;;;;;;;5112622;28;20040;-71
2021/12/22 08:10:08;;;;;;;31.50;12.10;;;;;;;;;;5095773;28;20043;-70
2021/12/22 08:12:34;;;;;;;32.40;13.48;;;;;;;;;;5095513;28;20399;-70
2021/12/22 08:15:01;;;;;;;31.40;13.10;;;;;;;;;;5112417;28;20130;-70
2021/12/22 08:17:27;;;;;;;29.83;12.60;;;;;;;;;;5112561;28;20090;-70
2021/12/22 08:19:54;;;;;;;30.02;12.00;;;;;;;;;;5083477;28;20036;-71
2021/12/22 08:22:20;;;;;;;30.27;13.43;;;;;;;;;;5092025;28;20173;-70
2021/12/22 08:24:46;;;;;;;30.83;12.73;;;;;;;;;;5091857;28;20036;-70
2021/12/22 08:27:12;;;;;;;29.13;12.98;;;;;;;;;;5091890;28;20040;-70
2021/12/22 08:29:42;;;;;;;32.70;14.25;;;;;;;;;;5091963;28;20130;-70
2021/12/22 08:32:09;;;;;;;32.50;14.05;;;;;;;;;;5091817;28;20522;-69
2021/12/22 08:34:38;;;;;;;28.85;12.75;;;;;;;;;;5091043;28;20426;-69
2021/12/22 08:39:49;;;;;;;30.52;11.85;;;;;;;;;;5089329;28;20414;-71
2021/12/22 08:42:15;;;;;;;24.27;11.80;;;;;;;;;;5087923;28;20036;-70
2021/12/22 08:44:41;;;;;;;28.40;12.60;;;;;;;;;;5087424;28;20152;-70
2021/12/22 08:47:07;;;;;;;36.58;14.70;;;;;;;;;;5087732;28;20128;-70
2021/12/22 08:49:34;;;;;;;31.83;12.82;;;;;;;;;;5086066;28;20032;-70
2021/12/22 08:52:00;;;;;;;31.02;13.50;;;;;;;;;;5088053;28;20266;-70
2021/12/22 08:54:26;;;;;;;28.92;14.00;;;;;;;;;;5087216;28;20552;-70
2021/12/22 08:56:54;;;;;;;32.92;14.45;;;;;;;;;;5086701;28;20044;-70
2021/12/22 08:59:20;;;;;;;29.58;14.00;;;;;;;;;;5088117;28;20098;-70
2021/12/22 09:01:46;;;;;;;32.60;14.27;;;;;;;;;;5087244;28;20511;-70
2021/12/22 09:04:12;;;;;;;32.25;12.60;;;;;;;;;;5087321;28;20047;-71
2021/12/22 09:06:38;;;;;;;38.00;14.73;;;;;;;;;;5087526;28;20040;-69
2021/12/22 09:09:05;;;;;;;35.33;13.32;;;;;;;;;;5087110;28;20043;-70
2021/12/22 09:11:31;;;;;;;31.23;11.75;;;;;;;;;;5087692;28;20074;-70
2021/12/22 09:13:57;;;;;;;32.42;14.15;;;;;;;;;;5087495;28;20050;-70
2021/12/22 09:16:23;;;;;;;31.17;12.85;;;;;;;;;;5087623;28;20051;-70
2021/12/22 09:18:49;;;;;;;32.60;14.80;;;;;;;;;;5085979;28;20039;-70
2021/12/22 09:21:16;;;;;;;31.88;12.23;;;;;;;;;;5086912;28;20078;-71
2021/12/22 09:23:42;;;;;;;31.73;13.63;;;;;;;;;;5087478;28;20047;-70
2021/12/22 09:26:08;;;;;;;30.80;13.60;;;;;;;;;;5087051;28;20044;-71
2021/12/22 09:28:34;;;;;;;29.00;12.05;;;;;;;;;;5086980;28;20044;-70
2021/12/22 09:31:01;;;;;;;28.38;14.30;;;;;;;;;;5069183;28;20071;-70
2021/12/22 09:33:27;;;;;;;28.90;13.20;;;;;;;;;;5066297;28;20040;-70
2021/12/22 09:35:54;;;;;;;32.00;13.00;;;;;;;;;;5066790;28;20051;-70
2021/12/22 09:38:21;;;;;;;33.20;13.15;;;;;;;;;;5067142;28;20048;-70
2021/12/22 09:40:47;;;;;;;30.48;11.85;;;;;;;;;;5066731;28;20067;-70
2021/12/22 09:43:13;;;;;;;30.98;14.00;;;;;;;;;;5066494;28;20523;-71
2021/12/22 09:45:44;;;;;;;28.95;13.23;;;;;;;;;;5066181;28;20040;-70
2021/12/22 09:50:48;;;;;;;26.83;13.20;;;;;;;;;;5106104;28;20476;-70
2021/12/22 09:53:15;;;;;;;28.42;14.02;;;;;;;;;;5106902;28;20051;-71
2021/12/22 09:55:41;;;;;;;34.92;14.70;;;;;;;;;;5105076;28;20074;-71
2021/12/22 09:58:09;;;;;;;36.33;14.80;;;;;;;;;;5077633;28;20124;-71
2021/12/22 10:00:36;;;;;;;34.10;14.07;;;;;;;;;;5103230;28;20096;-71
2021/12/22 10:03:04;;;;;;;34.47;13.70;;;;;;;;;;5086358;28;20082;-70
2021/12/22 10:05:30;;;;;;;32.92;14.45;;;;;;;;;;5086287;28;20496;-71
2021/12/22 10:08:06;;;;;;;37.83;14.10;;;;;;;;;;5086545;28;20047;-71
2021/12/22 10:10:32;;;;;;;31.90;13.48;;;;;;;;;;5103656;28;20506;-71
2021/12/22 10:13:09;;;;;;;31.88;13.85;;;;;;;;;;5086621;28;20075;-71
2021/12/22 10:15:36;;;;;;;29.95;13.32;;;;;;;;;;5086413;28;20444;-71
2021/12/22 10:18:09;;;;;;;33.78;14.82;;;;;;;;;;5103231;28;20451;-71
2021/12/22 10:20:35;;;;;;;27.27;13.05;;;;;;;;;;5085777;28;20122;-72
2021/12/22 10:23:01;;;;;;;33.08;13.70;;;;;;;;;;5080579;28;20411;-71
2021/12/22 10:25:31;;;;;;;35.58;14.68;;;;;;;;;;5074512;28;20048;-71
2021/12/22 10:28:06;;;;;;;31.98;14.07;;;;;;;;;;5077542;28;20389;-72
2021/12/22 10:30:40;;;;;;;28.00;14.30;;;;;;;;;;5074450;28;20043;-72
2021/12/22 10:33:13;;;;;;;32.50;14.82;;;;;;;;;;5074440;28;20102;-71
2021/12/22 10:35:40;;;;;;;32.20;15.93;;;;;;;;;;5081940;28;20181;-71
2021/12/22 10:38:07;;;;;;;37.38;15.30;;;;;;;;;;5085981;28;20039;-72
2021/12/22 10:40:38;;;;;;;36.80;15.43;;;;;;;;;;5086024;28;20082;-71
2021/12/22 10:43:05;;;;;;;29.85;13.70;;;;;;;;;;5086021;28;20567;-71
2021/12/22 10:45:32;;;;;;;28.98;14.05;;;;;;;;;;5076083;28;20071;-72
2021/12/22 10:50:45;;;;;;;31.50;14.20;;;;;;;;;;5083016;28;20043;-72
2021/12/22 10:53:13;;;;;;;32.20;14.23;;;;;;;;;;5076942;28;20036;-72
2021/12/22 10:55:41;;;;;;;27.92;13.82;;;;;;;;;;5070930;28;20049;-72
2021/12/22 10:58:16;;;;;;;26.75;14.30;;;;;;;;;;5069434;28;20393;-72
2021/12/22 11:00:42;;;;;;;30.33;13.13;;;;;;;;;;5073121;28;20489;-72
2021/12/22 11:03:09;;;;;;;26.80;14.25;;;;;;;;;;5072713;28;20532;-73
2021/12/22 11:05:42;;;;;;;29.67;14.32;;;;;;;;;;5076121;28;20051;-73
2021/12/22 11:08:17;;;;;;;33.95;13.38;;;;;;;;;;5093054;28;20040;-72
2021/12/22 11:10:43;;;;;;;28.40;13.63;;;;;;;;;;5093168;28;20036;-72
2021/12/22 11:13:09;;;;;;;28.75;13.35;;;;;;;;;;5083950;28;20178;-73
2021/12/22 11:15:42;;;;;;;26.85;11.63;;;;;;;;;;5072532;28;20040;-73
2021/12/22 11:18:24;;;;;;;29.05;13.35;;;;;;;;;;5072820;28;20043;-73
2021/12/22 11:21:06;;;;;;;27.50;12.63;;;;;;;;;;5072569;28;20507;-72
2021/12/22 11:23:32;;;;;;;27.77;13.27;;;;;;;;;;5072625;28;20537;-73
2021/12/22 11:25:58;;;;;;;30.90;13.77;;;;;;;;;;5072495;28;20043;-73
2021/12/22 11:28:24;;;;;;;32.65;13.45;;;;;;;;;;5072891;28;20032;-73
2021/12/22 11:30:51;;;;;;;27.02;12.93;;;;;;;;;;5072676;28;20075;-73
2021/12/22 11:33:17;;;;;;;28.13;13.35;;;;;;;;;;5072273;28;20135;-73
2021/12/22 11:35:43;;;;;;;29.38;13.27;;;;;;;;;;5072223;28;20127;-73
2021/12/22 11:38:09;;;;;;;31.95;14.50;;;;;;;;;;5072375;28;20048;-73
2021/12/22 11:40:35;;;;;;;30.08;13.57;;;;;;;;;;5072286;28;20484;-74
2021/12/22 11:43:01;;;;;;;28.08;13.38;;;;;;;;;;5072042;28;20033;-73
2021/12/22 11:45:28;;;;;;;25.88;12.18;;;;;;;;;;5072028;28;20492;-73
2021/12/22 11:47:57;;;;;;;24.25;11.98;;;;;;;;;;5072190;28;20059;-74
2021/12/22 11:50:25;;;;;;;29.45;12.68;;;;;;;;;;5083857;28;20032;-73
2021/12/22 11:53:02;;;;;;;28.40;13.77;;;;;;;;;;5091924;28;20396;-73
2021/12/22 11:55:37;;;;;;;27.33;12.55;;;;;;;;;;5092512;28;20071;-74
2021/12/22 11:58:21;;;;;;;28.23;13.18;;;;;;;;;;5092824;28;20510;-73
2021/12/22 12:00:59;;;;;;;27.88;12.68;;;;;;;;;;5092379;28;20094;-74
2021/12/22 12:03:28;;;;;;;29.05;12.48;;;;;;;;;;5109290;28;20126;-77
2021/12/22 12:06:02;;;;;;;27.60;12.27;;;;;;;;;;5092326;28;20082;-74
2021/12/22 12:08:33;;;;;;;28.40;12.10;;;;;;;;;;5109239;28;20039;-75
2021/12/22 12:10:59;;;;;;;25.92;11.40;;;;;;;;;;5092063;28;20040;-74
2021/12/22 12:13:35;;;;;;;24.13;11.02;;;;;;;;;;5092438;28;20556;-75
2021/12/22 12:21:38;;;;;;;26.80;12.45;;;;;;;;;;5092420;28;20653;-74
2021/12/22 12:21:47;;;;;;;22.00;11.13;;;;;;;;;;5112423;28;20043;-74
2021/12/22 12:24:32;;;;;;;24.60;10.73;;;;;;;;;;5112533;28;20047;-74
2021/12/22 12:26:58;;;;;;;20.40;11.07;;;;;;;;;;5095276;28;20047;-76
2021/12/22 12:29:43;;;;;;;26.02;11.50;;;;;;;;;;5095211;28;20035;-75
2021/12/22 12:32:09;;;;;;;23.58;10.32;;;;;;;;;;5095461;28;20073;-75
2021/12/22 12:34:39;;;;;;;21.73;10.48;;;;;;;;;;5060308;28;20380;-74
2021/12/22 12:37:06;;;;;;;20.30;10.13;;;;;;;;;;5071755;28;20465;-74
2021/12/22 12:40:01;;;;;;;22.42;10.45;;;;;;;;;;5071403;28;20040;-76
2021/12/22 12:42:29;;;;;;;19.38;9.95;;;;;;;;;;5058478;28;20094;-76
2021/12/22 12:44:55;;;;;;;23.77;10.93;;;;;;;;;;5071221;28;20535;-75
2021/12/22 12:47:21;;;;;;;22.35;10.98;;;;;;;;;;5072711;28;20033;-75
2021/12/22 12:49:47;;;;;;;25.55;11.35;;;;;;;;;;5096425;28;20074;-76
2021/12/22 12:52:19;;;;;;;25.52;11.68;;;;;;;;;;5090473;28;20105;-75
2021/12/22 12:54:46;;;;;;;21.23;10.23;;;;;;;;;;5100528;28;20036;-75
2021/12/22 12:57:15;;;;;;;23.58;11.05;;;;;;;;;;5094534;28;20081;-75
2021/12/22 12:59:44;;;;;;;29.40;12.27;;;;;;;;;;5111661;28;20047;-76
2021/12/22 13:02:12;;;;;;;21.98;10.18;;;;;;;;;;5111496;28;20062;-76
2021/12/22 13:04:39;;;;;;;27.17;11.02;;;;;;;;;;5083717;28;20048;-77
2021/12/22 13:07:13;;;;;;;24.92;10.43;;;;;;;;;;5079786;28;20036;-76
2021/12/22 13:09:43;;;;;;;24.00;11.02;;;;;;;;;;5079283;28;20040;-77
2021/12/22 13:12:14;;;;;;;23.35;10.68;;;;;;;;;;5080675;28;20040;-76
2021/12/22 13:17:28;;;;;;;24.65;10.85;;;;;;;;;;5088465;28;20140;-75
2021/12/22 13:19:55;;;;;;;23.83;11.18;;;;;;;;;;5074205;28;20038;-77
2021/12/22 13:22:22;;;;;;;19.88;10.55;;;;;;;;;;5087865;28;20070;-76
2021/12/22 13:24:49;;;;;;;23.00;11.52;;;;;;;;;;5078138;28;20070;-75
2021/12/22 13:27:29;;;;;;;24.27;11.70;;;;;;;;;;5077080;28;20123;-75
2021/12/22 13:30:15;;;;;;;17.58;9.13;;;;;;;;;;5068776;28;20043;-76
2021/12/22 13:32:56;;;;;;;19.67;10.18;;;;;;;;;;5078277;28;20047;-75
2021/12/22 13:35:38;;;;;;;25.63;11.60;;;;;;;;;;5075544;28;20083;-76
2021/12/22 13:38:05;;;;;;;21.48;9.95;;;;;;;;;;5075541;28;20340;-75
2021/12/22 13:40:40;;;;;;;24.17;10.02;;;;;;;;;;5076181;28;20040;-76
2021/12/22 13:43:06;;;;;;;21.20;9.63;;;;;;;;;;5078603;28;20093;-76
2021/12/22 13:45:33;;;;;;;21.58;9.35;;;;;;;;;;5076541;28;20082;-75
2021/12/22 13:47:59;;;;;;;23.75;11.00;;;;;;;;;;5077342;28;20556;-75
2021/12/22 13:50:25;;;;;;;20.83;9.73;;;;;;;;;;5074891;28;20028;-75
2021/12/22 13:52:51;;;;;;;26.58;10.77;;;;;;;;;;5076309;28;20042;-75
2021/12/22 13:55:17;;;;;;;22.40;10.57;;;;;;;;;;5077161;28;20048;-75
2021/12/22 13:57:43;;;;;;;20.00;10.77;;;;;;;;;;5075171;28;20044;-75
2021/12/22 14:00:10;;;;;;;22.45;10.18;;;;;;;;;;5076756;28;20448;-75
2021/12/22 14:02:36;;;;;;;20.80;11.02;;;;;;;;;;5076781;28;20048;-75
2021/12/22 14:05:13;;;;;;;29.38;11.85;;;;;;;;;;5075035;28;20059;-74
2021/12/22 14:07:39;;;;;;;23.40;9.85;;;;;;;;;;5075212;28;20044;-76
2021/12/22 14:10:10;;;;;;;24.38;10.90;;;;;;;;;;5077068;28;20097;-75
2021/12/22 14:12:37;;;;;;;20.38;11.13;;;;;;;;;;5076923;28;20044;-74
2021/12/22 14:15:03;;;;;;;20.42;9.68;;;;;;;;;;5094382;28;20044;-75
2021/12/22 14:17:35;;;;;;;26.80;11.05;;;;;;;;;;5076414;28;20123;-76
2021/12/22 14:20:06;;;;;;;25.88;12.23;;;;;;;;;;5077950;28;20043;-75
2021/12/22 14:22:33;;;;;;;25.52;11.43;;;;;;;;;;5076337;28;20426;-75
2021/12/22 14:25:01;;;;;;;24.52;11.77;;;;;;;;;;5075211;28;20497;-75
2021/12/22 14:27:35;;;;;;;25.85;11.05;;;;;;;;;;5076272;28;20035;-75
2021/12/22 14:30:02;;;;;;;26.33;12.60;;;;;;;;;;5077057;28;20484;-75
2021/12/22 14:32:33;;;;;;;25.60;10.93;;;;;;;;;;5075460;28;20332;-75
2021/12/22 14:35:14;;;;;;;25.33;11.50;;;;;;;;;;5095401;28;20105;-74
2021/12/22 14:37:44;;;;;;;28.38;10.85;;;;;;;;;;5078812;28;20393;-75
2021/12/22 14:40:15;;;;;;;31.15;10.55;;;;;;;;;;5079945;28;20101;-75
2021/12/22 14:42:41;;;;;;;26.15;11.80;;;;;;;;;;5080874;28;20044;-75
2021/12/22 14:45:17;;;;;;;23.27;11.60;;;;;;;;;;5079236;28;20052;-75
2021/12/22 14:47:43;;;;;;;25.30;11.50;;;;;;;;;;5078546;28;20429;-75
2021/12/22 14:50:15;;;;;;;24.70;12.07;;;;;;;;;;5082230;28;20043;-75